createdAt,value
2018-03-27T00:00:30.784Z,0.00
2018-03-27T00:02:24.060Z,0.00
2018-03-27T00:03:23.971Z,0.00
2018-03-27T00:05:17.377Z,0.00
2018-03-27T00:06:17.235Z,0.00
2018-03-27T00:08:10.494Z,0.00
2018-03-27T00:09:10.422Z,0.00
2018-03-27T00:11:03.697Z,0.00
2018-03-27T00:12:03.609Z,0.00
2018-03-27T00:13:56.867Z,0.00
2018-03-27T00:14:56.797Z,0.00
2018-03-27T00:16:51.064Z,0.00
2018-03-27T00:17:50.973Z,0.00
2018-03-27T00:19:44.270Z,0.00
2018-03-27T00:20:44.158Z,0.00
2018-03-27T00:22:37.532Z,0.00
2018-03-27T00:23:37.351Z,0.00
2018-03-27T00:25:30.624Z,0.00
2018-03-27T00:26:30.536Z,0.00
2018-03-27T00:28:23.795Z,0.00
2018-03-27T00:29:23.723Z,0.00
2018-03-27T00:31:17.000Z,0.00
2018-03-27T00:32:16.912Z,0.00
2018-03-27T00:34:10.281Z,0.00
2018-03-27T00:35:10.090Z,0.00
2018-03-27T00:37:03.360Z,0.00
2018-03-27T00:38:03.271Z,0.00
2018-03-27T00:39:56.568Z,0.00
2018-03-27T00:40:56.459Z,0.00
2018-03-27T00:42:49.709Z,0.00
2018-03-27T00:43:49.638Z,0.00
2018-03-27T00:45:42.922Z,0.00
2018-03-27T00:46:42.829Z,0.00
2018-03-27T00:48:36.088Z,0.00
2018-03-27T00:49:36.016Z,0.00
2018-03-27T00:51:29.322Z,0.00
2018-03-27T00:52:29.245Z,0.00
2018-03-27T00:54:22.496Z,0.00
2018-03-27T00:55:22.425Z,0.00
2018-03-27T00:57:15.695Z,0.00
2018-03-27T00:58:15.606Z,0.00
2018-03-27T01:00:08.906Z,0.00
2018-03-27T01:01:08.796Z,0.00
2018-03-27T01:03:02.166Z,0.00
2018-03-27T01:04:01.998Z,0.00
2018-03-27T01:05:55.324Z,0.00
2018-03-27T01:06:55.235Z,0.00
2018-03-27T01:08:48.604Z,0.00
2018-03-27T01:09:48.414Z,0.00
2018-03-27T01:11:41.693Z,0.00
2018-03-27T01:12:41.604Z,0.00
2018-03-27T01:14:34.864Z,0.00
2018-03-27T01:15:34.795Z,0.00
2018-03-27T01:17:28.063Z,0.00
2018-03-27T01:18:27.977Z,0.00
2018-03-27T01:20:21.324Z,0.00
2018-03-27T01:21:21.240Z,0.00
2018-03-27T01:23:14.507Z,0.00
2018-03-27T01:24:14.427Z,0.00
2018-03-27T01:26:07.815Z,0.00
2018-03-27T01:27:07.615Z,0.00
2018-03-27T01:29:00.878Z,0.00
2018-03-27T01:30:00.812Z,0.00
2018-03-27T01:31:54.195Z,0.00
2018-03-27T01:32:53.997Z,0.00
2018-03-27T01:34:47.306Z,0.00
2018-03-27T01:35:47.236Z,0.00
2018-03-27T01:37:40.624Z,0.00
2018-03-27T01:38:40.425Z,0.00
2018-03-27T01:40:33.816Z,0.00
2018-03-27T01:41:33.606Z,0.00
2018-03-27T01:43:26.866Z,0.00
2018-03-27T01:44:26.794Z,0.00
2018-03-27T01:46:20.074Z,0.00
2018-03-27T01:47:19.984Z,0.00
2018-03-27T01:49:13.307Z,0.00
2018-03-27T01:50:13.235Z,0.00
2018-03-27T01:52:06.515Z,0.00
2018-03-27T01:53:06.426Z,0.00
2018-03-27T01:54:59.683Z,0.00
2018-03-27T01:55:59.613Z,0.00
2018-03-27T01:57:52.891Z,0.00
2018-03-27T01:58:52.802Z,0.00
2018-03-27T02:00:46.085Z,0.00
2018-03-27T02:01:46.008Z,0.00
2018-03-27T02:03:39.308Z,0.00
2018-03-27T02:04:39.236Z,0.00
2018-03-27T02:06:32.506Z,0.00
2018-03-27T02:07:32.416Z,0.00
2018-03-27T02:09:25.676Z,0.00
2018-03-27T02:10:25.606Z,0.00
2018-03-27T02:12:18.884Z,0.00
2018-03-27T02:13:18.794Z,0.00
2018-03-27T02:15:12.165Z,0.00
2018-03-27T02:16:11.985Z,0.00
2018-03-27T02:18:05.373Z,0.00
2018-03-27T02:19:05.235Z,0.00
2018-03-27T02:20:58.513Z,0.00
2018-03-27T02:21:58.425Z,0.00
2018-03-27T02:23:51.685Z,0.00
2018-03-27T02:24:51.614Z,0.00
2018-03-27T02:26:45.002Z,0.00
2018-03-27T02:27:44.794Z,0.00
2018-03-27T02:29:38.045Z,0.00
2018-03-27T02:30:37.972Z,0.00
2018-03-27T02:32:31.328Z,0.00
2018-03-27T02:33:31.236Z,0.00
2018-03-27T02:35:24.610Z,0.00
2018-03-27T02:36:24.426Z,0.00
2018-03-27T02:38:17.704Z,0.00
2018-03-27T02:39:17.615Z,0.00
2018-03-27T02:41:10.882Z,0.00
2018-03-27T02:42:10.795Z,0.00
2018-03-27T02:44:04.162Z,0.00
2018-03-27T02:45:03.989Z,0.00
2018-03-27T02:46:57.327Z,0.00
2018-03-27T02:47:57.236Z,0.00
2018-03-27T02:49:50.488Z,0.00
2018-03-27T02:50:50.416Z,0.00
2018-03-27T02:52:44.803Z,0.00
2018-03-27T02:53:44.605Z,0.00
2018-03-27T02:55:37.864Z,0.00
2018-03-27T02:56:37.795Z,0.00
2018-03-27T02:58:31.069Z,0.00
2018-03-27T02:59:30.980Z,0.00
2018-03-27T03:01:24.258Z,0.00
2018-03-27T03:02:24.168Z,0.00
2018-03-27T03:04:17.536Z,0.00
2018-03-27T03:05:17.357Z,0.00
2018-03-27T03:07:11.744Z,0.00
2018-03-27T03:08:11.537Z,0.00
2018-03-27T03:10:04.831Z,0.00
2018-03-27T03:11:04.763Z,0.00
2018-03-27T03:12:58.029Z,0.00
2018-03-27T03:13:57.939Z,0.00
2018-03-27T03:15:51.309Z,0.00
2018-03-27T03:16:51.126Z,0.00
2018-03-27T03:18:44.403Z,0.00
2018-03-27T03:19:44.317Z,0.00
2018-03-27T03:21:37.588Z,0.00
2018-03-27T03:22:37.502Z,0.00
2018-03-27T03:24:30.758Z,0.00
2018-03-27T03:25:30.687Z,0.00
2018-03-27T03:27:23.963Z,0.00
2018-03-27T03:28:23.875Z,0.00
2018-03-27T03:30:17.248Z,0.00
2018-03-27T03:31:17.057Z,0.00
2018-03-27T03:33:10.331Z,0.00
2018-03-27T03:34:10.241Z,0.00
2018-03-27T03:36:03.500Z,0.00
2018-03-27T03:37:03.429Z,0.00
2018-03-27T03:38:56.707Z,0.00
2018-03-27T03:39:56.616Z,0.00
2018-03-27T03:41:49.892Z,0.00
2018-03-27T03:42:49.801Z,0.00
2018-03-27T03:44:43.061Z,0.00
2018-03-27T03:45:42.990Z,0.00
2018-03-27T03:47:36.266Z,0.00
2018-03-27T03:48:36.174Z,0.00
2018-03-27T03:50:29.432Z,0.00
2018-03-27T03:51:29.368Z,0.00
2018-03-27T03:53:22.639Z,0.00
2018-03-27T03:54:22.551Z,0.00
2018-03-27T03:56:15.806Z,0.00
2018-03-27T03:57:15.742Z,0.00
2018-03-27T03:59:09.012Z,0.00
2018-03-27T04:00:08.922Z,0.00
2018-03-27T04:02:03.203Z,0.00
2018-03-27T04:03:03.119Z,0.00
2018-03-27T04:04:56.478Z,0.00
2018-03-27T04:05:56.293Z,0.00
2018-03-27T04:07:49.569Z,0.00
2018-03-27T04:08:49.478Z,0.00
2018-03-27T04:10:42.738Z,0.00
2018-03-27T04:11:42.664Z,0.00
2018-03-27T04:13:35.943Z,0.00
2018-03-27T04:14:35.846Z,0.00
2018-03-27T04:16:29.104Z,0.00
2018-03-27T04:17:29.041Z,0.00
2018-03-27T04:19:22.312Z,0.00
2018-03-27T04:20:22.217Z,0.00
2018-03-27T04:22:15.493Z,0.00
2018-03-27T04:23:15.405Z,0.00
2018-03-27T04:25:08.665Z,0.00
2018-03-27T04:26:08.657Z,0.00
2018-03-27T04:28:01.979Z,0.00
2018-03-27T04:29:01.784Z,0.00
2018-03-27T04:30:55.035Z,0.00
2018-03-27T04:31:54.962Z,0.00
2018-03-27T04:33:48.260Z,0.00
2018-03-27T04:34:48.150Z,0.00
2018-03-27T04:36:41.515Z,0.00
2018-03-27T04:37:41.324Z,0.00
2018-03-27T04:39:34.605Z,0.00
2018-03-27T04:40:34.510Z,0.00
2018-03-27T04:42:27.898Z,0.00
2018-03-27T04:43:27.696Z,0.00
2018-03-27T04:45:20.952Z,0.00
2018-03-27T04:46:20.881Z,4.00
2018-03-27T04:48:14.155Z,0.00
2018-03-27T04:49:14.064Z,4.00
2018-03-27T04:51:07.324Z,4.00
2018-03-27T04:52:07.248Z,4.00
2018-03-27T04:54:01.525Z,8.00
2018-03-27T04:55:01.433Z,4.00
2018-03-27T04:56:54.803Z,8.00
2018-03-27T04:57:54.614Z,12.00
2018-03-27T04:59:47.998Z,12.00
2018-03-27T05:00:47.797Z,16.00
2018-03-27T05:02:41.073Z,16.00
2018-03-27T05:03:40.983Z,24.00
2018-03-27T05:05:34.351Z,32.00
2018-03-27T05:06:34.168Z,32.00
2018-03-27T05:08:27.554Z,44.00
2018-03-27T05:09:27.358Z,52.00
2018-03-27T05:11:20.610Z,68.00
2018-03-27T05:12:20.539Z,72.00
2018-03-27T05:14:13.808Z,88.00
2018-03-27T05:15:13.715Z,96.00
2018-03-27T05:17:07.085Z,112.00
2018-03-27T05:18:06.894Z,120.00
2018-03-27T05:20:00.281Z,140.00
2018-03-27T05:21:00.078Z,152.00
2018-03-27T05:22:53.355Z,172.00
2018-03-27T05:23:53.265Z,184.00
2018-03-27T05:25:46.522Z,212.00
2018-03-27T05:26:46.450Z,232.00
2018-03-27T05:28:39.837Z,272.00
2018-03-27T05:29:39.634Z,296.00
2018-03-27T05:31:32.891Z,344.00
2018-03-27T05:32:32.818Z,368.00
2018-03-27T05:34:26.205Z,416.00
2018-03-27T05:35:26.004Z,444.00
2018-03-27T05:37:19.373Z,492.00
2018-03-27T05:38:19.234Z,524.00
2018-03-27T05:40:12.498Z,576.00
2018-03-27T05:41:12.408Z,604.00
2018-03-27T05:43:05.683Z,668.00
2018-03-27T05:44:05.592Z,692.00
2018-03-27T05:45:58.857Z,752.00
2018-03-27T05:46:58.777Z,780.00
2018-03-27T05:48:52.058Z,840.00
2018-03-27T05:49:51.961Z,880.00
2018-03-27T05:51:45.273Z,956.00
2018-03-27T05:52:45.152Z,992.00
2018-03-27T05:54:38.427Z,1048.00
2018-03-27T05:55:38.338Z,1072.00
2018-03-27T05:57:31.585Z,1140.00
2018-03-27T05:58:31.511Z,1184.00
2018-03-27T06:00:24.903Z,1276.00
2018-03-27T06:01:24.697Z,1324.00
2018-03-27T06:03:18.137Z,1396.00
2018-03-27T06:04:17.881Z,1436.00
2018-03-27T06:06:11.137Z,1516.00
2018-03-27T06:07:11.066Z,1560.00
2018-03-27T06:09:04.449Z,1640.00
2018-03-27T06:10:04.246Z,1684.00
2018-03-27T06:11:57.502Z,1772.00
2018-03-27T06:12:57.430Z,1816.00
2018-03-27T06:14:50.705Z,1904.00
2018-03-27T06:15:50.614Z,1936.00
2018-03-27T06:17:43.871Z,2004.00
2018-03-27T06:18:43.833Z,2052.00
2018-03-27T06:20:37.193Z,2132.00
2018-03-27T06:21:37.011Z,2180.00
2018-03-27T06:23:30.395Z,2256.00
2018-03-27T06:24:30.191Z,2288.00
2018-03-27T06:26:23.560Z,2352.00
2018-03-27T06:27:23.415Z,2384.00
2018-03-27T06:29:16.649Z,2448.00
2018-03-27T06:30:16.555Z,2480.00
2018-03-27T06:32:09.922Z,2544.00
2018-03-27T06:33:09.740Z,2576.00
2018-03-27T06:35:03.013Z,2656.00
2018-03-27T06:36:02.921Z,2692.00
2018-03-27T06:37:56.289Z,2768.00
2018-03-27T06:38:56.103Z,2780.00
2018-03-27T06:40:49.378Z,2796.00
2018-03-27T06:41:49.288Z,2844.00
2018-03-27T06:43:42.564Z,2904.00
2018-03-27T06:44:42.472Z,2940.00
2018-03-27T06:46:35.723Z,3016.00
2018-03-27T06:47:35.677Z,3076.00
2018-03-27T06:49:29.032Z,3248.00
2018-03-27T06:50:28.836Z,3328.00
2018-03-27T06:52:22.200Z,3584.00
2018-03-27T06:53:22.016Z,3584.00
2018-03-27T06:55:15.402Z,3508.00
2018-03-27T06:56:15.236Z,3624.00
2018-03-27T06:58:08.489Z,3572.00
2018-03-27T06:59:08.446Z,3568.00
2018-03-27T07:01:01.805Z,3708.00
2018-03-27T07:02:01.634Z,3764.00
2018-03-27T07:03:55.010Z,3784.00
2018-03-27T07:04:54.785Z,3772.00
2018-03-27T07:06:48.157Z,3824.00
2018-03-27T07:07:47.986Z,3908.00
2018-03-27T07:09:41.359Z,4036.00
2018-03-27T07:10:41.192Z,4028.00
2018-03-27T07:12:34.420Z,4024.00
2018-03-27T07:13:34.338Z,4072.00
2018-03-27T07:15:27.614Z,4048.00
2018-03-27T07:16:27.542Z,3976.00
2018-03-27T07:18:20.892Z,4196.00
2018-03-27T07:19:20.714Z,4212.00
2018-03-27T07:21:14.039Z,4276.00
2018-03-27T07:22:13.897Z,4376.00
2018-03-27T07:24:07.174Z,4488.00
2018-03-27T07:25:07.082Z,4536.00
2018-03-27T07:27:00.506Z,4620.00
2018-03-27T07:28:00.260Z,5036.00
2018-03-27T07:29:53.534Z,5148.00
2018-03-27T07:30:53.444Z,5396.00
2018-03-27T07:32:46.703Z,5600.00
2018-03-27T07:33:46.632Z,5648.00
2018-03-27T07:35:39.911Z,5732.00
2018-03-27T07:36:39.819Z,5604.00
2018-03-27T07:38:33.190Z,5780.00
2018-03-27T07:39:33.007Z,5568.00
2018-03-27T07:41:26.287Z,5552.00
2018-03-27T07:42:26.195Z,5588.00
2018-03-27T07:44:19.496Z,5768.00
2018-03-27T07:45:19.385Z,5844.00
2018-03-27T07:47:12.752Z,5892.00
2018-03-27T07:48:12.568Z,6216.00
2018-03-27T07:50:05.841Z,7084.00
2018-03-27T07:51:05.754Z,7332.00
2018-03-27T07:52:59.013Z,7192.00
2018-03-27T07:53:58.938Z,7096.00
2018-03-27T07:55:52.220Z,7224.00
2018-03-27T07:56:52.130Z,7188.00
2018-03-27T07:58:45.391Z,7964.00
2018-03-27T07:59:45.320Z,8504.00
2018-03-27T08:01:38.600Z,8212.00
2018-03-27T08:02:38.511Z,8552.00
2018-03-27T08:04:31.396Z,9964.00
2018-03-27T08:05:31.200Z,9800.00
2018-03-27T08:07:24.454Z,9700.00
2018-03-27T08:08:24.382Z,9464.00
2018-03-27T08:10:17.773Z,9928.00
2018-03-27T08:11:17.588Z,8736.00
2018-03-27T08:13:10.830Z,9152.00
2018-03-27T08:14:10.761Z,8780.00
2018-03-27T08:16:04.149Z,9244.00
2018-03-27T08:17:03.950Z,8792.00
2018-03-27T08:18:57.211Z,6572.00
2018-03-27T08:19:57.168Z,6204.00
2018-03-27T08:21:50.420Z,6272.00
2018-03-27T08:22:50.331Z,6352.00
2018-03-27T08:24:43.611Z,5904.00
2018-03-27T08:25:43.520Z,5624.00
2018-03-27T08:27:36.785Z,5724.00
2018-03-27T08:28:36.709Z,5804.00
2018-03-27T08:30:30.097Z,5844.00
2018-03-27T08:31:29.897Z,5672.00
2018-03-27T08:33:23.157Z,5576.00
2018-03-27T08:34:23.085Z,5644.00
2018-03-27T08:36:16.505Z,5404.00
2018-03-27T08:37:16.276Z,5352.00
2018-03-27T08:39:09.536Z,5344.00
2018-03-27T08:40:09.463Z,5268.00
2018-03-27T08:42:02.741Z,5640.00
2018-03-27T08:43:02.652Z,5908.00
2018-03-27T08:44:56.040Z,6060.00
2018-03-27T08:45:55.840Z,6188.00
2018-03-27T08:47:49.100Z,6628.00
2018-03-27T08:48:49.028Z,6776.00
2018-03-27T08:50:42.305Z,7360.00
2018-03-27T08:51:42.221Z,7704.00
2018-03-27T08:53:35.476Z,8068.00
2018-03-27T08:54:35.407Z,8108.00
2018-03-27T08:56:28.684Z,12420.00
2018-03-27T08:57:28.594Z,12380.00
2018-03-27T08:59:21.965Z,11384.00
2018-03-27T09:00:21.783Z,10916.00
2018-03-27T09:02:15.066Z,10592.00
2018-03-27T09:03:14.979Z,11456.00
2018-03-27T09:05:08.259Z,10160.00
2018-03-27T09:06:08.168Z,10080.00
2018-03-27T09:08:01.428Z,9524.00
2018-03-27T09:09:01.362Z,9468.00
2018-03-27T09:10:54.642Z,8844.00
2018-03-27T09:11:54.556Z,9108.00
2018-03-27T09:13:47.829Z,10660.00
2018-03-27T09:14:47.758Z,10552.00
2018-03-27T09:16:41.150Z,9896.00
2018-03-27T09:17:40.946Z,10112.00
2018-03-27T09:19:34.213Z,9716.00
2018-03-27T09:20:34.143Z,9328.00
2018-03-27T09:22:27.535Z,9120.00
2018-03-27T09:23:27.342Z,8772.00
2018-03-27T09:25:20.626Z,9288.00
2018-03-27T09:26:20.543Z,9248.00
2018-03-27T09:28:13.914Z,8676.00
2018-03-27T09:29:13.739Z,9092.00
2018-03-27T09:31:07.139Z,8796.00
2018-03-27T09:32:06.951Z,6808.00
2018-03-27T09:34:00.209Z,9656.00
2018-03-27T09:35:00.141Z,6680.00
2018-03-27T09:36:53.418Z,8616.00
2018-03-27T09:37:53.333Z,7816.00
2018-03-27T09:39:46.603Z,8576.00
2018-03-27T09:40:46.535Z,8440.00
2018-03-27T09:42:40.045Z,8036.00
2018-03-27T09:43:39.791Z,8640.00
2018-03-27T09:45:33.145Z,8868.00
2018-03-27T09:46:32.940Z,8964.00
2018-03-27T09:48:26.204Z,8732.00
2018-03-27T09:49:26.137Z,7932.00
2018-03-27T09:51:19.423Z,8928.00
2018-03-27T09:52:19.338Z,9316.00
2018-03-27T09:54:12.608Z,9180.00
2018-03-27T09:55:12.541Z,8992.00
2018-03-27T09:57:05.826Z,6748.00
2018-03-27T09:58:05.744Z,7532.00
2018-03-27T09:59:59.134Z,8740.00
2018-03-27T10:00:58.948Z,8872.00
2018-03-27T10:02:52.344Z,8684.00
2018-03-27T10:03:52.212Z,8736.00
2018-03-27T10:05:45.445Z,8772.00
2018-03-27T10:06:45.361Z,8960.00
2018-03-27T10:08:38.740Z,8376.00
2018-03-27T10:09:38.568Z,8572.00
2018-03-27T10:11:31.866Z,9636.00
2018-03-27T10:12:31.834Z,9348.00
2018-03-27T10:14:25.111Z,8016.00
2018-03-27T10:15:24.993Z,7012.00
2018-03-27T10:17:18.277Z,8908.00
2018-03-27T10:18:18.192Z,9648.00
2018-03-27T10:20:11.467Z,9664.00
2018-03-27T10:21:11.404Z,9232.00
2018-03-27T10:23:05.705Z,9024.00
2018-03-27T10:24:05.644Z,9300.00
2018-03-27T10:25:58.917Z,9080.00
2018-03-27T10:26:58.835Z,9268.00
2018-03-27T10:28:52.214Z,8992.00
2018-03-27T10:29:52.047Z,9340.00
2018-03-27T10:31:45.340Z,10600.00
2018-03-27T10:32:45.256Z,11264.00
2018-03-27T10:34:38.530Z,10516.00
2018-03-27T10:35:38.462Z,15228.00
2018-03-27T10:37:31.753Z,19296.00
2018-03-27T10:38:31.687Z,14344.00
2018-03-27T10:40:24.945Z,13732.00
2018-03-27T10:41:24.881Z,15088.00
2018-03-27T10:43:19.172Z,14012.00
2018-03-27T10:44:19.092Z,12740.00
2018-03-27T10:46:12.383Z,5412.00
2018-03-27T10:47:12.303Z,10628.00
2018-03-27T10:49:05.574Z,11176.00
2018-03-27T10:50:05.512Z,7736.00
2018-03-27T10:51:58.804Z,4764.00
2018-03-27T10:52:58.721Z,4680.00
2018-03-27T10:54:51.993Z,4420.00
2018-03-27T10:55:51.929Z,5068.00
2018-03-27T10:57:45.220Z,5428.00
2018-03-27T10:58:45.132Z,6772.00
2018-03-27T11:00:38.406Z,4140.00
2018-03-27T11:01:38.339Z,5244.00
2018-03-27T11:03:31.735Z,5640.00
2018-03-27T11:04:31.541Z,5856.00
2018-03-27T11:06:24.937Z,6376.00
2018-03-27T11:07:24.746Z,6132.00
2018-03-27T11:09:18.026Z,5548.00
2018-03-27T11:10:17.952Z,5636.00
2018-03-27T11:12:11.239Z,6508.00
2018-03-27T11:13:11.157Z,8624.00
2018-03-27T11:15:04.425Z,7840.00
2018-03-27T11:16:04.360Z,8100.00
2018-03-27T11:17:57.646Z,9160.00
2018-03-27T11:18:57.562Z,9016.00
2018-03-27T11:20:50.834Z,7868.00
2018-03-27T11:21:50.769Z,7612.00
2018-03-27T11:23:44.290Z,7560.00
2018-03-27T11:24:43.975Z,7632.00
2018-03-27T11:26:37.260Z,6872.00
2018-03-27T11:27:37.170Z,6684.00
2018-03-27T11:29:30.440Z,7256.00
2018-03-27T11:30:30.370Z,7144.00
2018-03-27T11:32:23.776Z,6380.00
2018-03-27T11:33:23.580Z,6480.00
2018-03-27T11:35:16.851Z,7120.00
2018-03-27T11:36:16.784Z,7528.00
2018-03-27T11:38:10.075Z,8292.00
2018-03-27T11:39:10.032Z,7900.00
2018-03-27T11:41:03.378Z,7224.00
2018-03-27T11:42:03.247Z,7264.00
2018-03-27T11:43:56.535Z,7596.00
2018-03-27T11:44:56.451Z,8024.00
2018-03-27T11:46:49.734Z,8572.00
2018-03-27T11:47:49.648Z,9148.00
2018-03-27T11:49:43.025Z,8572.00
2018-03-27T11:50:42.854Z,8368.00
2018-03-27T11:52:36.251Z,8488.00
2018-03-27T11:53:36.058Z,8312.00
2018-03-27T11:55:29.436Z,7452.00
2018-03-27T11:56:29.264Z,7432.00
2018-03-27T11:58:22.553Z,7472.00
2018-03-27T11:59:22.470Z,7912.00
2018-03-27T12:01:15.744Z,7948.00
2018-03-27T12:02:15.676Z,8204.00
2018-03-27T12:04:08.966Z,8472.00
2018-03-27T12:05:08.881Z,8332.00
2018-03-27T12:07:02.275Z,8264.00
2018-03-27T12:08:02.077Z,7800.00
2018-03-27T12:09:55.459Z,7920.00
2018-03-27T12:10:55.282Z,8196.00
2018-03-27T12:12:48.678Z,7044.00
2018-03-27T12:13:48.487Z,6976.00
2018-03-27T12:15:41.756Z,6684.00
2018-03-27T12:16:41.689Z,6688.00
2018-03-27T12:18:34.984Z,6472.00
2018-03-27T12:19:34.899Z,6508.00
2018-03-27T12:21:28.172Z,6400.00
2018-03-27T12:22:28.111Z,6200.00
2018-03-27T12:24:21.392Z,5920.00
2018-03-27T12:25:21.307Z,5784.00
2018-03-27T12:27:14.701Z,5916.00
2018-03-27T12:28:14.505Z,6148.00
2018-03-27T12:30:07.879Z,6508.00
2018-03-27T12:31:07.712Z,6636.00
2018-03-27T12:33:01.001Z,7048.00
2018-03-27T12:34:00.914Z,7108.00
2018-03-27T12:35:54.184Z,6952.00
2018-03-27T12:36:54.125Z,6836.00
2018-03-27T12:38:47.513Z,6456.00
2018-03-27T12:39:47.325Z,6404.00
2018-03-27T12:41:40.594Z,6372.00
2018-03-27T12:42:40.527Z,6428.00
2018-03-27T12:44:33.819Z,6440.00
2018-03-27T12:45:33.734Z,6340.00
2018-03-27T12:47:27.015Z,5948.00
2018-03-27T12:48:26.930Z,5812.00
2018-03-27T12:50:20.307Z,5456.00
2018-03-27T12:51:20.133Z,5060.00
2018-03-27T12:53:13.584Z,4640.00
2018-03-27T12:54:13.338Z,4576.00
2018-03-27T12:56:06.712Z,4400.00
2018-03-27T12:57:06.540Z,4300.00
2018-03-27T12:58:59.830Z,4080.00
2018-03-27T12:59:59.746Z,4004.00
2018-03-27T13:01:53.014Z,4020.00
2018-03-27T13:02:52.950Z,4456.00
2018-03-27T13:04:46.345Z,5180.00
2018-03-27T13:05:46.177Z,5380.00
2018-03-27T13:07:39.547Z,5572.00
2018-03-27T13:08:39.357Z,5580.00
2018-03-27T13:10:32.626Z,5580.00
2018-03-27T13:11:32.558Z,5608.00
2018-03-27T13:13:25.846Z,5748.00
2018-03-27T13:14:25.760Z,5824.00
2018-03-27T13:16:19.028Z,5844.00
2018-03-27T13:17:18.963Z,5604.00
2018-03-27T13:19:12.250Z,4896.00
2018-03-27T13:20:12.166Z,4640.00
2018-03-27T13:22:05.437Z,4548.00
2018-03-27T13:23:05.369Z,4656.00
2018-03-27T13:24:58.765Z,4412.00
2018-03-27T13:25:58.572Z,4244.00
2018-03-27T13:27:51.967Z,3980.00
2018-03-27T13:28:51.776Z,3888.00
2018-03-27T13:30:45.197Z,3952.00
2018-03-27T13:31:44.984Z,3964.00
2018-03-27T13:33:38.375Z,4008.00
2018-03-27T13:34:38.186Z,4076.00
2018-03-27T13:36:31.444Z,4108.00
2018-03-27T13:37:31.377Z,3988.00
2018-03-27T13:39:24.665Z,4076.00
2018-03-27T13:40:24.581Z,4012.00
2018-03-27T13:42:17.355Z,3600.00
2018-03-27T13:43:17.288Z,3496.00
2018-03-27T13:45:10.688Z,3464.00
2018-03-27T13:46:10.522Z,3512.00
2018-03-27T13:48:03.930Z,3636.00
2018-03-27T13:49:03.696Z,3672.00
2018-03-27T13:50:57.071Z,3612.00
2018-03-27T13:51:56.896Z,3452.00
2018-03-27T13:53:50.182Z,2924.00
2018-03-27T13:54:50.098Z,2856.00
2018-03-27T13:56:43.474Z,2936.00
2018-03-27T13:57:43.292Z,2932.00
2018-03-27T13:59:36.578Z,2784.00
2018-03-27T14:00:36.494Z,2696.00
2018-03-27T14:02:29.779Z,2456.00
2018-03-27T14:03:29.694Z,2332.00
2018-03-27T14:05:23.087Z,2324.00
2018-03-27T14:06:22.895Z,2464.00
2018-03-27T14:08:16.180Z,3088.00
2018-03-27T14:09:16.098Z,3752.00
2018-03-27T14:11:09.366Z,4540.00
2018-03-27T14:12:09.298Z,4652.00
2018-03-27T14:14:02.593Z,4672.00
2018-03-27T14:15:02.539Z,4512.00
2018-03-27T14:16:55.760Z,4292.00
2018-03-27T14:17:55.694Z,4316.00
2018-03-27T14:19:48.981Z,4488.00
2018-03-27T14:20:48.897Z,4576.00
2018-03-27T14:22:42.203Z,4676.00
2018-03-27T14:23:42.122Z,4768.00
2018-03-27T14:25:35.478Z,4980.00
2018-03-27T14:26:35.299Z,4948.00
2018-03-27T14:28:28.693Z,4840.00
2018-03-27T14:29:28.502Z,4668.00
2018-03-27T14:31:21.773Z,4320.00
2018-03-27T14:32:21.708Z,4176.00
2018-03-27T14:34:14.995Z,4264.00
2018-03-27T14:35:14.909Z,4400.00
2018-03-27T14:37:08.169Z,4568.00
2018-03-27T14:38:08.105Z,4592.00
2018-03-27T14:40:01.505Z,4448.00
2018-03-27T14:41:01.311Z,4368.00
2018-03-27T14:42:55.622Z,4264.00
2018-03-27T14:43:55.518Z,4216.00
2018-03-27T14:45:48.788Z,4068.00
2018-03-27T14:46:48.746Z,3960.00
2018-03-27T14:48:42.114Z,3700.00
2018-03-27T14:49:41.926Z,3464.00
2018-03-27T14:51:35.193Z,2920.00
2018-03-27T14:52:35.127Z,2632.00
2018-03-27T14:54:28.416Z,2308.00
2018-03-27T14:55:28.331Z,2248.00
2018-03-27T14:57:21.705Z,2356.00
2018-03-27T14:58:21.523Z,2416.00
2018-03-27T15:00:14.811Z,2464.00
2018-03-27T15:01:14.726Z,2444.00
2018-03-27T15:03:08.141Z,2468.00
2018-03-27T15:04:07.931Z,2504.00
2018-03-27T15:06:01.199Z,2644.00
2018-03-27T15:07:01.153Z,2724.00
2018-03-27T15:08:54.417Z,2736.00
2018-03-27T15:09:54.331Z,2652.00
2018-03-27T15:11:47.600Z,2564.00
2018-03-27T15:12:47.534Z,2556.00
2018-03-27T15:14:40.928Z,2364.00
2018-03-27T15:15:40.736Z,2192.00
2018-03-27T15:17:33.997Z,1964.00
2018-03-27T15:18:33.927Z,1848.00
2018-03-27T15:20:27.219Z,1736.00
2018-03-27T15:21:27.131Z,1732.00
2018-03-27T15:23:20.524Z,1604.00
2018-03-27T15:24:20.337Z,1516.00
2018-03-27T15:26:13.599Z,1404.00
2018-03-27T15:27:13.533Z,1364.00
2018-03-27T15:29:06.822Z,1328.00
2018-03-27T15:30:06.737Z,1340.00
2018-03-27T15:32:00.116Z,1340.00
2018-03-27T15:32:59.944Z,1328.00
2018-03-27T15:34:53.224Z,1332.00
2018-03-27T15:35:53.142Z,1388.00
2018-03-27T15:37:46.410Z,1628.00
2018-03-27T15:38:46.349Z,1760.00
2018-03-27T15:40:39.630Z,2008.00
2018-03-27T15:41:39.552Z,2104.00
2018-03-27T15:43:32.831Z,2144.00
2018-03-27T15:44:32.748Z,2144.00
2018-03-27T15:46:26.015Z,2132.00
2018-03-27T15:47:25.949Z,2108.00
2018-03-27T15:49:19.343Z,2060.00
2018-03-27T15:50:19.156Z,2040.00
2018-03-27T15:52:12.530Z,1992.00
2018-03-27T15:53:12.361Z,1980.00
2018-03-27T15:55:05.753Z,1988.00
2018-03-27T15:56:05.561Z,1988.00
2018-03-27T15:57:58.948Z,1992.00
2018-03-27T15:58:58.763Z,1936.00
2018-03-27T16:00:52.050Z,1736.00
2018-03-27T16:01:51.968Z,1628.00
2018-03-27T16:03:45.328Z,1456.00
2018-03-27T16:04:45.244Z,1396.00
2018-03-27T16:06:39.515Z,1400.00
2018-03-27T16:07:39.449Z,1432.00
2018-03-27T16:09:32.738Z,1460.00
2018-03-27T16:10:32.650Z,1456.00
2018-03-27T16:12:25.918Z,1428.00
2018-03-27T16:13:25.888Z,1416.00
2018-03-27T16:15:19.247Z,1392.00
2018-03-27T16:16:19.053Z,1364.00
2018-03-27T16:18:13.322Z,1276.00
2018-03-27T16:19:13.256Z,1244.00
2018-03-27T16:21:06.542Z,1196.00
2018-03-27T16:22:06.461Z,1120.00
2018-03-27T16:23:59.746Z,920.00
2018-03-27T16:24:59.659Z,808.00
2018-03-27T16:26:52.929Z,672.00
2018-03-27T16:27:52.863Z,636.00
2018-03-27T16:29:46.257Z,544.00
2018-03-27T16:30:46.064Z,492.00
2018-03-27T16:32:39.334Z,436.00
2018-03-27T16:33:39.264Z,416.00
2018-03-27T16:35:32.550Z,404.00
2018-03-27T16:36:32.471Z,400.00
2018-03-27T16:38:25.843Z,388.00
2018-03-27T16:39:25.665Z,400.00
2018-03-27T16:41:18.949Z,432.00
2018-03-27T16:42:18.859Z,424.00
2018-03-27T16:44:12.261Z,404.00
2018-03-27T16:45:12.058Z,384.00
2018-03-27T16:47:05.938Z,340.00
2018-03-27T16:48:05.256Z,336.00
2018-03-27T16:49:58.538Z,328.00
2018-03-27T16:50:58.452Z,308.00
2018-03-27T16:52:51.717Z,288.00
2018-03-27T16:53:51.647Z,276.00
2018-03-27T16:55:44.929Z,272.00
2018-03-27T16:56:44.841Z,280.00
2018-03-27T16:58:38.106Z,276.00
2018-03-27T16:59:38.036Z,260.00
2018-03-27T17:01:31.324Z,248.00
2018-03-27T17:02:31.238Z,244.00
2018-03-27T17:04:24.629Z,220.00
2018-03-27T17:05:24.431Z,212.00
2018-03-27T17:07:17.700Z,204.00
2018-03-27T17:08:17.625Z,204.00
2018-03-27T17:10:10.906Z,196.00
2018-03-27T17:11:10.816Z,188.00
2018-03-27T17:13:04.188Z,188.00
2018-03-27T17:14:04.007Z,192.00
2018-03-27T17:15:57.325Z,180.00
2018-03-27T17:16:57.237Z,168.00
2018-03-27T17:18:50.499Z,156.00
2018-03-27T17:19:50.432Z,148.00
2018-03-27T17:21:43.711Z,148.00
2018-03-27T17:22:43.622Z,128.00
2018-03-27T17:24:36.903Z,100.00
2018-03-27T17:25:36.815Z,88.00
2018-03-27T17:27:30.189Z,72.00
2018-03-27T17:28:29.999Z,68.00
2018-03-27T17:30:23.323Z,68.00
2018-03-27T17:31:23.236Z,68.00
2018-03-27T17:33:16.500Z,68.00
2018-03-27T17:34:16.430Z,60.00
2018-03-27T17:36:09.823Z,56.00
2018-03-27T17:37:09.670Z,60.00
2018-03-27T17:39:02.983Z,60.00
2018-03-27T17:40:02.804Z,60.00
2018-03-27T17:41:56.091Z,52.00
2018-03-27T17:42:56.014Z,56.00
2018-03-27T17:44:49.386Z,60.00
2018-03-27T17:45:49.237Z,56.00
2018-03-27T17:47:42.488Z,48.00
2018-03-27T17:48:42.418Z,44.00
2018-03-27T17:50:35.699Z,36.00
2018-03-27T17:51:35.610Z,32.00
2018-03-27T17:53:28.863Z,28.00
2018-03-27T17:54:28.797Z,28.00
2018-03-27T17:56:22.070Z,24.00
2018-03-27T17:57:21.983Z,20.00
2018-03-27T17:59:15.355Z,12.00
2018-03-27T18:00:15.244Z,12.00